sensor_id;sensor_type;location;lat;lon;timestamp;pressure;altitude;pressure_sealevel;temperature;humidity
23164;BME280;31429;42.674;23.350;2023-07-30T00:00:12;94623.13;;;22.93;100.00
23164;BME280;31429;42.674;23.350;2023-07-30T00:01:13;94616.13;;;23.03;100.00
23164;BME280;31429;42.674;23.350;2023-07-30T00:02:14;94620.53;;;22.63;100.00
23164;BME280;31429;42.674;23.350;2023-07-30T00:03:14;94618.41;;;22.38;100.00
23164;BME280;31429;42.674;23.350;2023-07-30T00:04:15;94622.38;;;22.72;100.00
23164;BME280;31429;42.674;23.350;2023-07-30T00:05:16;94616.22;;;22.73;100.00
23164;BME280;31429;42.674;23.350;2023-07-30T00:06:16;94623.34;;;22.80;100.00
23164;BME280;31429;42.674;23.350;2023-07-30T00:07:18;94615.81;;;22.87;100.00
23164;BME280;31429;42.674;23.350;2023-07-30T00:08:19;94611.84;;;23.02;100.00
23164;BME280;31429;42.674;23.350;2023-07-30T00:09:19;94615.66;;;22.79;100.00
23164;BME280;31429;42.674;23.350;2023-07-30T00:10:20;94614.81;;;22.69;100.00
23164;BME280;31429;42.674;23.350;2023-07-30T00:11:21;94615.69;;;22.88;100.00
23164;BME280;31429;42.674;23.350;2023-07-30T00:12:21;94606.50;;;22.94;100.00
23164;BME280;31429;42.674;23.350;2023-07-30T00:13:22;94610.47;;;23.08;100.00
23164;BME280;31429;42.674;23.350;2023-07-30T00:14:23;94610.22;;;23.20;100.00
23164;BME280;31429;42.674;23.350;2023-07-30T00:15:24;94605.09;;;22.80;100.00
23164;BME280;31429;42.674;23.350;2023-07-30T00:16:25;94614.63;;;22.61;100.00
23164;BME280;31429;42.674;23.350;2023-07-30T00:17:26;94616.88;;;22.35;100.00
23164;BME280;31429;42.674;23.350;2023-07-30T00:18:26;94602.47;;;22.01;100.00
23164;BME280;31429;42.674;23.350;2023-07-30T00:19:27;94613.03;;;21.99;100.00
23164;BME280;31429;42.674;23.350;2023-07-30T00:20:28;94611.09;;;22.22;100.00
23164;BME280;31429;42.674;23.350;2023-07-30T00:21:28;94615.91;;;22.66;100.00
23164;BME280;31429;42.674;23.350;2023-07-30T00:22:30;94614.34;;;23.04;100.00
23164;BME280;31429;42.674;23.350;2023-07-30T00:23:31;94609.41;;;23.39;100.00
23164;BME280;31429;42.674;23.350;2023-07-30T00:24:32;94611.91;;;23.40;100.00
23164;BME280;31429;42.674;23.350;2023-07-30T00:25:32;94615.19;;;23.52;100.00
23164;BME280;31429;42.674;23.350;2023-07-30T00:26:33;94617.78;;;23.52;100.00
23164;BME280;31429;42.674;23.350;2023-07-30T00:27:34;94612.69;;;23.51;100.00
23164;BME280;31429;42.674;23.350;2023-07-30T00:28:35;94606.38;;;23.63;100.00
23164;BME280;31429;42.674;23.350;2023-07-30T00:29:35;94608.31;;;23.41;100.00
23164;BME280;31429;42.674;23.350;2023-07-30T00:30:36;94613.13;;;23.27;100.00
23164;BME280;31429;42.674;23.350;2023-07-30T00:31:36;94605.25;;;23.36;100.00
23164;BME280;31429;42.674;23.350;2023-07-30T00:32:37;94604.59;;;23.54;100.00
23164;BME280;31429;42.674;23.350;2023-07-30T00:33:43;94608.03;;;23.44;99.52
23164;BME280;31429;42.674;23.350;2023-07-30T00:34:44;94602.25;;;23.31;99.32
23164;BME280;31429;42.674;23.350;2023-07-30T00:35:44;94603.22;;;23.11;100.00
23164;BME280;31429;42.674;23.350;2023-07-30T00:36:45;94603.63;;;23.16;100.00
23164;BME280;31429;42.674;23.350;2023-07-30T00:37:47;94597.31;;;23.48;100.00
23164;BME280;31429;42.674;23.350;2023-07-30T00:38:47;94601.97;;;23.54;100.00
23164;BME280;31429;42.674;23.350;2023-07-30T00:39:48;94600.06;;;23.27;100.00
23164;BME280;31429;42.674;23.350;2023-07-30T00:40:49;94601.78;;;22.69;100.00
23164;BME280;31429;42.674;23.350;2023-07-30T00:41:49;94604.16;;;22.42;100.00
23164;BME280;31429;42.674;23.350;2023-07-30T00:42:51;94601.31;;;22.54;100.00
23164;BME280;31429;42.674;23.350;2023-07-30T00:43:51;94595.19;;;22.65;100.00
23164;BME280;31429;42.674;23.350;2023-07-30T00:44:52;94598.69;;;23.04;100.00
23164;BME280;31429;42.674;23.350;2023-07-30T00:45:53;94599.78;;;23.30;100.00
23164;BME280;31429;42.674;23.350;2023-07-30T00:46:53;94600.31;;;23.62;100.00
23164;BME280;31429;42.674;23.350;2023-07-30T00:47:54;94602.53;;;23.48;98.82
23164;BME280;31429;42.674;23.350;2023-07-30T00:48:55;94609.00;;;23.43;100.00
23164;BME280;31429;42.674;23.350;2023-07-30T00:49:55;94603.09;;;23.51;100.00
23164;BME280;31429;42.674;23.350;2023-07-30T00:50:56;94602.09;;;23.62;98.41
23164;BME280;31429;42.674;23.350;2023-07-30T00:51:57;94604.72;;;23.62;98.40
23164;BME280;31429;42.674;23.350;2023-07-30T00:52:59;94601.03;;;23.55;97.70
23164;BME280;31429;42.674;23.350;2023-07-30T00:54:00;94600.63;;;23.21;97.79
23164;BME280;31429;42.674;23.350;2023-07-30T00:55:02;94606.06;;;22.40;100.00
23164;BME280;31429;42.674;23.350;2023-07-30T00:56:03;94610.00;;;22.34;100.00
23164;BME280;31429;42.674;23.350;2023-07-30T00:57:04;94607.97;;;22.77;100.00
23164;BME280;31429;42.674;23.350;2023-07-30T00:58:05;94607.22;;;23.15;100.00
23164;BME280;31429;42.674;23.350;2023-07-30T00:59:06;94602.81;;;23.54;100.00
23164;BME280;31429;42.674;23.350;2023-07-30T01:00:08;94604.19;;;23.20;99.05
23164;BME280;31429;42.674;23.350;2023-07-30T01:01:09;94595.75;;;22.68;100.00
23164;BME280;31429;42.674;23.350;2023-07-30T01:02:12;94605.00;;;22.52;100.00
23164;BME280;31429;42.674;23.350;2023-07-30T01:03:12;94597.88;;;22.54;100.00
23164;BME280;31429;42.674;23.350;2023-07-30T01:04:14;94600.19;;;22.97;100.00
23164;BME280;31429;42.674;23.350;2023-07-30T01:05:14;94599.38;;;22.56;100.00
23164;BME280;31429;42.674;23.350;2023-07-30T01:06:15;94597.88;;;22.54;100.00
23164;BME280;31429;42.674;23.350;2023-07-30T01:07:16;94601.16;;;23.15;100.00
23164;BME280;31429;42.674;23.350;2023-07-30T01:08:18;94603.75;;;23.34;100.00
23164;BME280;31429;42.674;23.350;2023-07-30T01:09:18;94599.25;;;23.45;100.00
23164;BME280;31429;42.674;23.350;2023-07-30T01:10:19;94600.63;;;23.40;98.17
23164;BME280;31429;42.674;23.350;2023-07-30T01:11:21;94599.47;;;22.75;100.00
23164;BME280;31429;42.674;23.350;2023-07-30T01:12:22;94603.47;;;22.09;100.00
23164;BME280;31429;42.674;23.350;2023-07-30T01:13:23;94604.47;;;22.18;100.00
23164;BME280;31429;42.674;23.350;2023-07-30T01:14:25;94605.00;;;22.52;100.00
23164;BME280;31429;42.674;23.350;2023-07-30T01:15:26;94609.91;;;22.45;100.00
23164;BME280;31429;42.674;23.350;2023-07-30T01:16:27;94603.06;;;22.04;100.00
23164;BME280;31429;42.674;23.350;2023-07-30T01:17:28;94610.19;;;21.61;100.00
23164;BME280;31429;42.674;23.350;2023-07-30T01:18:29;94605.78;;;22.03;100.00
23164;BME280;31429;42.674;23.350;2023-07-30T01:19:30;94613.13;;;22.58;100.00
23164;BME280;31429;42.674;23.350;2023-07-30T01:20:31;94610.34;;;23.09;100.00
23164;BME280;31429;42.674;23.350;2023-07-30T01:21:33;94618.19;;;23.09;100.00
23164;BME280;31429;42.674;23.350;2023-07-30T01:22:34;94605.50;;;22.85;100.00
23164;BME280;31429;42.674;23.350;2023-07-30T01:23:35;94609.75;;;22.77;100.00
23164;BME280;31429;42.674;23.350;2023-07-30T01:24:36;94613.91;;;23.27;100.00
23164;BME280;31429;42.674;23.350;2023-07-30T01:25:37;94614.78;;;23.47;100.00
23164;BME280;31429;42.674;23.350;2023-07-30T01:26:41;94609.13;;;23.61;100.00
23164;BME280;31429;42.674;23.350;2023-07-30T01:27:47;94610.75;;;23.72;100.00
23164;BME280;31429;42.674;23.350;2023-07-30T01:28:51;94605.00;;;23.59;100.00
23164;BME280;31429;42.674;23.350;2023-07-30T01:29:57;94606.38;;;23.63;100.00
23164;BME280;31429;42.674;23.350;2023-07-30T01:31:01;94608.69;;;23.27;100.00
23164;BME280;31429;42.674;23.350;2023-07-30T01:32:05;94604.31;;;23.37;100.00
23164;BME280;31429;42.674;23.350;2023-07-30T01:33:09;94612.53;;;23.33;100.00
23164;BME280;31429;42.674;23.350;2023-07-30T01:34:11;94612.69;;;23.51;100.00
23164;BME280;31429;42.674;23.350;2023-07-30T01:35:13;94598.66;;;23.80;100.00
23164;BME280;31429;42.674;23.350;2023-07-30T01:36:15;94601.88;;;24.01;100.00
23164;BME280;31429;42.674;23.350;2023-07-30T01:37:18;94607.47;;;23.70;100.00
23164;BME280;31429;42.674;23.350;2023-07-30T01:38:20;94606.97;;;23.47;100.00
23164;BME280;31429;42.674;23.350;2023-07-30T01:39:21;94607.34;;;23.42;100.00
23164;BME280;31429;42.674;23.350;2023-07-30T01:40:22;94611.59;;;23.24;100.00
23164;BME280;31429;42.674;23.350;2023-07-30T01:41:23;94602.38;;;22.92;100.00
23164;BME280;31429;42.674;23.350;2023-07-30T01:42:28;94607.47;;;23.03;100.00
23164;BME280;31429;42.674;23.350;2023-07-30T01:43:29;94606.66;;;23.21;100.00
23164;BME280;31429;42.674;23.350;2023-07-30T01:44:29;94606.69;;;23.40;100.00
23164;BME280;31429;42.674;23.350;2023-07-30T01:45:30;94610.38;;;23.57;100.00
23164;BME280;31429;42.674;23.350;2023-07-30T01:46:31;94605.53;;;23.72;100.00
23164;BME280;31429;42.674;23.350;2023-07-30T01:47:31;94608.53;;;23.86;100.00
23164;BME280;31429;42.674;23.350;2023-07-30T01:48:32;94607.53;;;24.07;100.00
23164;BME280;31429;42.674;23.350;2023-07-30T01:49:33;94611.22;;;24.14;100.00
23164;BME280;31429;42.674;23.350;2023-07-30T01:50:33;94605.72;;;24.17;100.00
23164;BME280;31429;42.674;23.350;2023-07-30T01:51:34;94608.03;;;24.20;100.00
23164;BME280;31429;42.674;23.350;2023-07-30T01:52:36;94605.25;;;23.75;98.92
23164;BME280;31429;42.674;23.350;2023-07-30T01:53:37;94619.56;;;23.32;100.00
23164;BME280;31429;42.674;23.350;2023-07-30T01:54:37;94608.16;;;23.72;100.00
23164;BME280;31429;42.674;23.350;2023-07-30T01:55:38;94616.75;;;23.91;100.00
23164;BME280;31429;42.674;23.350;2023-07-30T01:56:43;94605.19;;;24.03;100.00
23164;BME280;31429;42.674;23.350;2023-07-30T01:57:44;94609.09;;;23.71;100.00
23164;BME280;31429;42.674;23.350;2023-07-30T01:58:45;94611.81;;;23.88;100.00
23164;BME280;31429;42.674;23.350;2023-07-30T01:59:45;94613.31;;;24.00;100.00
23164;BME280;31429;42.674;23.350;2023-07-30T02:00:46;94606.84;;;24.14;100.00
23164;BME280;31429;42.674;23.350;2023-07-30T02:01:47;94612.16;;;24.22;100.00
23164;BME280;31429;42.674;23.350;2023-07-30T02:02:48;94614.63;;;24.24;100.00
23164;BME280;31429;42.674;23.350;2023-07-30T02:03:48;94614.50;;;24.25;100.00
23164;BME280;31429;42.674;23.350;2023-07-30T02:04:49;94615.88;;;24.20;100.00
23164;BME280;31429;42.674;23.350;2023-07-30T02:05:50;94614.00;;;23.93;100.00
23164;BME280;31429;42.674;23.350;2023-07-30T02:06:50;94613.06;;;23.84;100.00
23164;BME280;31429;42.674;23.350;2023-07-30T02:07:52;94612.03;;;24.04;100.00
23164;BME280;31429;42.674;23.350;2023-07-30T02:08:53;94618.44;;;23.83;100.00
23164;BME280;31429;42.674;23.350;2023-07-30T02:09:54;94613.09;;;23.75;100.00
23164;BME280;31429;42.674;23.350;2023-07-30T02:10:55;94617.59;;;23.82;100.00
23164;BME280;31429;42.674;23.350;2023-07-30T02:11:56;94609.19;;;23.98;100.00
23164;BME280;31429;42.674;23.350;2023-07-30T02:12:57;94615.78;;;24.12;100.00
23164;BME280;31429;42.674;23.350;2023-07-30T02:13:57;94607.22;;;24.19;100.00
23164;BME280;31429;42.674;23.350;2023-07-30T02:14:58;94613.53;;;24.26;100.00
23164;BME280;31429;42.674;23.350;2023-07-30T02:15:59;94613.28;;;24.20;100.00
23164;BME280;31429;42.674;23.350;2023-07-30T02:16:59;94605.72;;;24.17;100.00
23164;BME280;31429;42.674;23.350;2023-07-30T02:18:00;94614.78;;;24.13;100.00
23164;BME280;31429;42.674;23.350;2023-07-30T02:19:01;94606.16;;;24.12;100.00
23164;BME280;31429;42.674;23.350;2023-07-30T02:20:01;94613.28;;;24.10;100.00
23164;BME280;31429;42.674;23.350;2023-07-30T02:21:03;94615.50;;;24.15;100.00
23164;BME280;31429;42.674;23.350;2023-07-30T02:22:04;94616.16;;;24.17;100.00
23164;BME280;31429;42.674;23.350;2023-07-30T02:23:06;94617.75;;;23.81;94.87
23164;BME280;31429;42.674;23.350;2023-07-30T02:24:07;94615.72;;;23.65;99.45
23164;BME280;31429;42.674;23.350;2023-07-30T02:25:10;94622.00;;;23.82;100.00
23164;BME280;31429;42.674;23.350;2023-07-30T02:26:11;94619.66;;;23.98;100.00
23164;BME280;31429;42.674;23.350;2023-07-30T02:27:11;94618.25;;;24.13;100.00
23164;BME280;31429;42.674;23.350;2023-07-30T02:28:12;94620.03;;;24.13;100.00
23164;BME280;31429;42.674;23.350;2023-07-30T02:29:13;94620.56;;;24.16;100.00
23164;BME280;31429;42.674;23.350;2023-07-30T02:30:13;94620.44;;;24.08;99.65
23164;BME280;31429;42.674;23.350;2023-07-30T02:31:14;94623.66;;;23.92;98.06
23164;BME280;31429;42.674;23.350;2023-07-30T02:32:16;94629.44;;;23.86;99.36
23164;BME280;31429;42.674;23.350;2023-07-30T02:33:16;94630.66;;;23.82;100.00
23164;BME280;31429;42.674;23.350;2023-07-30T02:34:17;94633.25;;;24.11;100.00
23164;BME280;31429;42.674;23.350;2023-07-30T02:35:18;94624.44;;;24.12;99.50
23164;BME280;31429;42.674;23.350;2023-07-30T02:36:18;94622.06;;;24.19;98.58
23164;BME280;31429;42.674;23.350;2023-07-30T02:37:19;94624.13;;;24.25;97.97
23164;BME280;31429;42.674;23.350;2023-07-30T02:38:21;94624.44;;;24.02;93.88
23164;BME280;31429;42.674;23.350;2023-07-30T02:39:22;94626.56;;;23.41;95.11
23164;BME280;31429;42.674;23.350;2023-07-30T02:40:22;94636.47;;;23.48;100.00
23164;BME280;31429;42.674;23.350;2023-07-30T02:41:23;94631.94;;;23.59;100.00
23164;BME280;31429;42.674;23.350;2023-07-30T02:42:24;94637.81;;;23.23;100.00
23164;BME280;31429;42.674;23.350;2023-07-30T02:43:25;94635.09;;;23.63;100.00
23164;BME280;31429;42.674;23.350;2023-07-30T02:44:25;94633.28;;;23.82;100.00
23164;BME280;31429;42.674;23.350;2023-07-30T02:45:26;94635.88;;;23.82;100.00
23164;BME280;31429;42.674;23.350;2023-07-30T02:46:27;94634.75;;;23.94;99.68
23164;BME280;31429;42.674;23.350;2023-07-30T02:47:27;94641.50;;;23.97;98.95
23164;BME280;31429;42.674;23.350;2023-07-30T02:48:28;94633.66;;;23.97;98.69
23164;BME280;31429;42.674;23.350;2023-07-30T02:49:29;94632.00;;;23.96;98.58
23164;BME280;31429;42.674;23.350;2023-07-30T02:50:29;94631.22;;;23.86;98.99
23164;BME280;31429;42.674;23.350;2023-07-30T02:51:30;94631.91;;;23.78;97.52
23164;BME280;31429;42.674;23.350;2023-07-30T02:53:43;94636.72;;;23.83;98.86
23164;BME280;31429;42.674;23.350;2023-07-30T02:54:44;94626.66;;;23.97;98.50
23164;BME280;31429;42.674;23.350;2023-07-30T02:55:45;94630.13;;;23.50;95.52
23164;BME280;31429;42.674;23.350;2023-07-30T02:56:46;94637.63;;;22.86;99.03
23164;BME280;31429;42.674;23.350;2023-07-30T02:57:47;94636.44;;;23.09;100.00
23164;BME280;31429;42.674;23.350;2023-07-30T02:58:48;94634.66;;;23.19;100.00
23164;BME280;31429;42.674;23.350;2023-07-30T02:59:49;94633.19;;;22.37;100.00
23164;BME280;31429;42.674;23.350;2023-07-30T03:00:50;94638.25;;;22.29;100.00
23164;BME280;31429;42.674;23.350;2023-07-30T03:01:50;94634.00;;;22.68;100.00
23164;BME280;31429;42.674;23.350;2023-07-30T03:02:51;94633.53;;;23.03;100.00
23164;BME280;31429;42.674;23.350;2023-07-30T03:03:52;94635.50;;;23.39;100.00
23164;BME280;31429;42.674;23.350;2023-07-30T03:04:53;94636.88;;;23.62;100.00
23164;BME280;31429;42.674;23.350;2023-07-30T03:05:54;94636.47;;;23.57;100.00
23164;BME280;31429;42.674;23.350;2023-07-30T03:06:55;94635.50;;;23.58;99.45
23164;BME280;31429;42.674;23.350;2023-07-30T03:07:56;94630.66;;;23.25;97.38
23164;BME280;31429;42.674;23.350;2023-07-30T03:08:58;94636.97;;;23.22;99.83
23164;BME280;31429;42.674;23.350;2023-07-30T03:09:59;94644.97;;;23.21;100.00
23164;BME280;31429;42.674;23.350;2023-07-30T03:11:00;94638.22;;;23.37;100.00
23164;BME280;31429;42.674;23.350;2023-07-30T03:12:01;94643.91;;;23.52;100.00
23164;BME280;31429;42.674;23.350;2023-07-30T03:13:02;94638.13;;;23.58;99.89
23164;BME280;31429;42.674;23.350;2023-07-30T03:14:03;94639.88;;;23.10;97.93
23164;BME280;31429;42.674;23.350;2023-07-30T03:15:04;94641.19;;;22.85;100.00
23164;BME280;31429;42.674;23.350;2023-07-30T03:16:05;94639.50;;;22.34;100.00
23164;BME280;31429;42.674;23.350;2023-07-30T03:17:06;94642.84;;;22.46;100.00
23164;BME280;31429;42.674;23.350;2023-07-30T03:18:07;94642.28;;;22.12;100.00
23164;BME280;31429;42.674;23.350;2023-07-30T03:19:08;94647.44;;;21.82;100.00
23164;BME280;31429;42.674;23.350;2023-07-30T03:20:09;94642.91;;;21.63;100.00
23164;BME280;31429;42.674;23.350;2023-07-30T03:21:10;94638.28;;;21.67;100.00
23164;BME280;31429;42.674;23.350;2023-07-30T03:22:11;94641.41;;;21.82;100.00
23164;BME280;31429;42.674;23.350;2023-07-30T03:23:11;94653.84;;;21.37;100.00
23164;BME280;31429;42.674;23.350;2023-07-30T03:24:16;94643.88;;;20.99;100.00
23164;BME280;31429;42.674;23.350;2023-07-30T03:25:17;94640.78;;;20.62;100.00
23164;BME280;31429;42.674;23.350;2023-07-30T03:26:18;94638.75;;;20.21;100.00
23164;BME280;31429;42.674;23.350;2023-07-30T03:27:19;94643.34;;;19.95;100.00
23164;BME280;31429;42.674;23.350;2023-07-30T03:28:23;94644.53;;;19.80;100.00
23164;BME280;31429;42.674;23.350;2023-07-30T03:29:23;94642.13;;;19.55;100.00
23164;BME280;31429;42.674;23.350;2023-07-30T03:30:24;94641.75;;;19.48;100.00
23164;BME280;31429;42.674;23.350;2023-07-30T03:31:25;94646.00;;;19.26;100.00
23164;BME280;31429;42.674;23.350;2023-07-30T03:32:28;94641.09;;;19.10;100.00
23164;BME280;31429;42.674;23.350;2023-07-30T03:33:29;94642.38;;;19.05;100.00
23164;BME280;31429;42.674;23.350;2023-07-30T03:34:30;94649.88;;;18.97;100.00
23164;BME280;31429;42.674;23.350;2023-07-30T03:35:33;94652.72;;;19.05;100.00
23164;BME280;31429;42.674;23.350;2023-07-30T03:36:34;94653.56;;;19.05;100.00
23164;BME280;31429;42.674;23.350;2023-07-30T03:37:34;94651.69;;;19.07;100.00
23164;BME280;31429;42.674;23.350;2023-07-30T03:38:35;94647.72;;;19.14;100.00
23164;BME280;31429;42.674;23.350;2023-07-30T03:39:37;94647.50;;;19.17;100.00
23164;BME280;31429;42.674;23.350;2023-07-30T03:40:37;94652.28;;;19.11;100.00
23164;BME280;31429;42.674;23.350;2023-07-30T03:41:38;94645.91;;;19.04;100.00
23164;BME280;31429;42.674;23.350;2023-07-30T03:42:39;94646.44;;;18.96;100.00
23164;BME280;31429;42.674;23.350;2023-07-30T03:43:39;94641.47;;;18.93;100.00
23164;BME280;31429;42.674;23.350;2023-07-30T03:44:40;94649.50;;;18.90;100.00
23164;BME280;31429;42.674;23.350;2023-07-30T03:45:41;94638.63;;;18.85;100.00
23164;BME280;31429;42.674;23.350;2023-07-30T03:46:42;94648.28;;;18.83;100.00
23164;BME280;31429;42.674;23.350;2023-07-30T03:47:43;94639.06;;;18.79;100.00
23164;BME280;31429;42.674;23.350;2023-07-30T03:48:44;94649.66;;;18.76;100.00
23164;BME280;31429;42.674;23.350;2023-07-30T03:49:45;94643.97;;;18.71;100.00
23164;BME280;31429;42.674;23.350;2023-07-30T03:50:45;94645.34;;;18.64;100.00
23164;BME280;31429;42.674;23.350;2023-07-30T03:51:47;94645.44;;;18.62;100.00
23164;BME280;31429;42.674;23.350;2023-07-30T03:52:47;94643.28;;;18.56;100.00
23164;BME280;31429;42.674;23.350;2023-07-30T03:53:48;94650.03;;;18.59;100.00
23164;BME280;31429;42.674;23.350;2023-07-30T03:54:50;94643.19;;;18.58;100.00
23164;BME280;31429;42.674;23.350;2023-07-30T03:55:50;94645.66;;;18.59;100.00
23164;BME280;31429;42.674;23.350;2023-07-30T03:56:51;94653.53;;;18.58;100.00
23164;BME280;31429;42.674;23.350;2023-07-30T03:57:52;94652.84;;;18.56;100.00
23164;BME280;31429;42.674;23.350;2023-07-30T03:58:52;94659.84;;;18.54;100.00
23164;BME280;31429;42.674;23.350;2023-07-30T03:59:53;94656.47;;;18.53;100.00
23164;BME280;31429;42.674;23.350;2023-07-30T04:00:54;94655.19;;;18.46;100.00
23164;BME280;31429;42.674;23.350;2023-07-30T04:01:54;94657.59;;;18.49;100.00
23164;BME280;31429;42.674;23.350;2023-07-30T04:02:55;94658.09;;;18.54;100.00
23164;BME280;31429;42.674;23.350;2023-07-30T04:03:56;94659.13;;;18.64;100.00
23164;BME280;31429;42.674;23.350;2023-07-30T04:04:56;94660.13;;;18.74;100.00
23164;BME280;31429;42.674;23.350;2023-07-30T04:05:57;94653.88;;;18.77;100.00
23164;BME280;31429;42.674;23.350;2023-07-30T04:06:58;94659.63;;;18.69;100.00
23164;BME280;31429;42.674;23.350;2023-07-30T04:07:58;94665.94;;;18.65;100.00
23164;BME280;31429;42.674;23.350;2023-07-30T04:08:59;94662.50;;;18.65;100.00
23164;BME280;31429;42.674;23.350;2023-07-30T04:10:01;94667.47;;;18.68;100.00
23164;BME280;31429;42.674;23.350;2023-07-30T04:11:02;94656.81;;;18.72;100.00
23164;BME280;31429;42.674;23.350;2023-07-30T04:12:03;94653.31;;;18.84;100.00
23164;BME280;31429;42.674;23.350;2023-07-30T04:13:04;94661.06;;;18.97;100.00
23164;BME280;31429;42.674;23.350;2023-07-30T04:14:04;94650.25;;;19.03;100.00
23164;BME280;31429;42.674;23.350;2023-07-30T04:15:08;94653.94;;;19.12;100.00
23164;BME280;31429;42.674;23.350;2023-07-30T04:16:09;94655.63;;;19.13;100.00
23164;BME280;31429;42.674;23.350;2023-07-30T04:17:10;94661.59;;;19.13;100.00
23164;BME280;31429;42.674;23.350;2023-07-30T04:18:10;94658.44;;;19.10;100.00
23164;BME280;31429;42.674;23.350;2023-07-30T04:19:11;94658.53;;;19.08;100.00
23164;BME280;31429;42.674;23.350;2023-07-30T04:20:12;94656.06;;;19.07;100.00
23164;BME280;31429;42.674;23.350;2023-07-30T04:21:12;94661.34;;;19.05;100.00
23164;BME280;31429;42.674;23.350;2023-07-30T04:22:14;94661.50;;;19.15;100.00
23164;BME280;31429;42.674;23.350;2023-07-30T04:23:15;94661.06;;;19.21;100.00
23164;BME280;31429;42.674;23.350;2023-07-30T04:24:15;94659.06;;;19.24;100.00
23164;BME280;31429;42.674;23.350;2023-07-30T04:25:18;94665.69;;;19.28;100.00
23164;BME280;31429;42.674;23.350;2023-07-30T04:26:18;94673.25;;;19.31;100.00
23164;BME280;31429;42.674;23.350;2023-07-30T04:27:19;94664.72;;;19.18;100.00
23164;BME280;31429;42.674;23.350;2023-07-30T04:28:19;94662.88;;;19.08;100.00
23164;BME280;31429;42.674;23.350;2023-07-30T04:29:20;94661.13;;;19.08;100.00
23164;BME280;31429;42.674;23.350;2023-07-30T04:30:21;94664.41;;;19.10;100.00
23164;BME280;31429;42.674;23.350;2023-07-30T04:31:21;94659.13;;;19.12;100.00
23164;BME280;31429;42.674;23.350;2023-07-30T04:32:22;94662.47;;;19.25;100.00
23164;BME280;31429;42.674;23.350;2023-07-30T04:33:23;94670.19;;;19.37;100.00
23164;BME280;31429;42.674;23.350;2023-07-30T04:34:23;94662.09;;;19.42;100.00
23164;BME280;31429;42.674;23.350;2023-07-30T04:35:24;94667.94;;;19.57;100.00
23164;BME280;31429;42.674;23.350;2023-07-30T04:36:25;94665.59;;;19.65;100.00
23164;BME280;31429;42.674;23.350;2023-07-30T04:37:25;94663.00;;;19.65;100.00
23164;BME280;31429;42.674;23.350;2023-07-30T04:38:26;94663.00;;;19.65;100.00
23164;BME280;31429;42.674;23.350;2023-07-30T04:39:26;94663.97;;;19.75;100.00
23164;BME280;31429;42.674;23.350;2023-07-30T04:40:29;94675.06;;;19.77;100.00
23164;BME280;31429;42.674;23.350;2023-07-30T04:41:29;94661.03;;;19.79;100.00
23164;BME280;31429;42.674;23.350;2023-07-30T04:42:30;94666.66;;;19.73;100.00
23164;BME280;31429;42.674;23.350;2023-07-30T04:43:31;94667.88;;;19.80;100.00
23164;BME280;31429;42.674;23.350;2023-07-30T04:44:32;94672.94;;;19.82;100.00
23164;BME280;31429;42.674;23.350;2023-07-30T04:45:32;94667.38;;;19.75;100.00
23164;BME280;31429;42.674;23.350;2023-07-30T04:46:33;94674.94;;;19.78;100.00
23164;BME280;31429;42.674;23.350;2023-07-30T04:47:33;94674.38;;;19.86;100.00
23164;BME280;31429;42.674;23.350;2023-07-30T04:48:34;94668.59;;;19.93;100.00
23164;BME280;31429;42.674;23.350;2023-07-30T04:49:35;94673.44;;;19.98;100.00
23164;BME280;31429;42.674;23.350;2023-07-30T04:50:37;94669.66;;;19.91;100.00
23164;BME280;31429;42.674;23.350;2023-07-30T04:51:39;94670.13;;;19.85;100.00
23164;BME280;31429;42.674;23.350;2023-07-30T04:52:40;94668.38;;;19.96;100.00
23164;BME280;31429;42.674;23.350;2023-07-30T04:53:41;94674.38;;;19.97;100.00
23164;BME280;31429;42.674;23.350;2023-07-30T04:54:42;94671.81;;;20.08;100.00
23164;BME280;31429;42.674;23.350;2023-07-30T04:55:44;94668.63;;;20.16;100.00
23164;BME280;31429;42.674;23.350;2023-07-30T04:56:44;94668.16;;;20.11;100.00
23164;BME280;31429;42.674;23.350;2023-07-30T04:57:45;94670.88;;;20.20;100.00
23164;BME280;31429;42.674;23.350;2023-07-30T04:58:46;94674.66;;;20.38;100.00
23164;BME280;31429;42.674;23.350;2023-07-30T04:59:46;94663.34;;;20.50;100.00
23164;BME280;31429;42.674;23.350;2023-07-30T05:00:47;94674.78;;;20.70;100.00
23164;BME280;31429;42.674;23.350;2023-07-30T05:01:47;94666.72;;;21.59;100.00
23164;BME280;31429;42.674;23.350;2023-07-30T05:02:48;94669.31;;;21.91;100.00
23164;BME280;31429;42.674;23.350;2023-07-30T05:03:49;94667.50;;;22.72;100.00
23164;BME280;31429;42.674;23.350;2023-07-30T05:04:49;94666.50;;;23.04;100.00
23164;BME280;31429;42.674;23.350;2023-07-30T05:05:51;94667.94;;;23.46;100.00
23164;BME280;31429;42.674;23.350;2023-07-30T05:06:51;94666.38;;;23.15;100.00
23164;BME280;31429;42.674;23.350;2023-07-30T05:07:52;94660.00;;;22.88;100.00
23164;BME280;31429;42.674;23.350;2023-07-30T05:08:52;94669.69;;;23.26;100.00
23164;BME280;31429;42.674;23.350;2023-07-30T05:09:53;94667.09;;;23.65;100.00
23164;BME280;31429;42.674;23.350;2023-07-30T05:10:55;94662.13;;;23.90;100.00
23164;BME280;31429;42.674;23.350;2023-07-30T05:11:56;94664.84;;;23.98;99.49
23164;BME280;31429;42.674;23.350;2023-07-30T05:12:56;94664.13;;;24.25;97.63
23164;BME280;31429;42.674;23.350;2023-07-30T05:13:57;94660.66;;;24.34;95.20
23164;BME280;31429;42.674;23.350;2023-07-30T05:14:58;94659.66;;;24.45;95.30
23164;BME280;31429;42.674;23.350;2023-07-30T05:15:58;94663.84;;;24.28;89.71